createdAt,value
2023-12-31T00:01:45.944Z,4.90
2023-12-31T00:04:13.488Z,4.90
2023-12-31T00:06:40.421Z,4.80
2023-12-31T00:09:07.278Z,4.80
2023-12-31T00:11:34.602Z,4.70
2023-12-31T00:14:01.535Z,4.60
2023-12-31T00:16:28.438Z,4.60
2023-12-31T00:18:55.646Z,4.50
2023-12-31T00:21:22.432Z,4.40
2023-12-31T00:23:49.585Z,4.40
2023-12-31T00:26:16.332Z,4.30
2023-12-31T00:28:43.372Z,4.30
2023-12-31T00:31:10.168Z,4.30
2023-12-31T00:33:37.033Z,4.30
2023-12-31T00:36:04.096Z,4.40
2023-12-31T00:38:31.186Z,4.40
2023-12-31T00:40:58.173Z,4.40
2023-12-31T00:43:25.030Z,4.40
2023-12-31T00:45:51.881Z,4.50
2023-12-31T00:48:18.713Z,4.50
2023-12-31T00:50:45.619Z,4.50
2023-12-31T00:53:12.794Z,4.50
2023-12-31T00:55:40.099Z,4.50
2023-12-31T00:58:08.635Z,4.50
2023-12-31T01:00:35.579Z,4.60
2023-12-31T01:03:02.867Z,4.50
2023-12-31T01:05:30.043Z,4.50
2023-12-31T01:07:57.166Z,4.50
2023-12-31T01:10:24.185Z,4.60
2023-12-31T01:12:51.119Z,4.50
2023-12-31T01:15:17.870Z,4.60
2023-12-31T01:17:44.846Z,4.60
2023-12-31T01:20:12.343Z,4.60
2023-12-31T01:22:39.455Z,4.60
2023-12-31T01:25:06.726Z,4.60
2023-12-31T01:27:33.655Z,4.60
2023-12-31T01:30:00.717Z,4.70
2023-12-31T01:32:29.173Z,4.70
2023-12-31T01:35:04.255Z,4.70
2023-12-31T01:37:31.160Z,4.70
2023-12-31T01:39:59.141Z,4.70
2023-12-31T01:42:26.040Z,4.70
2023-12-31T01:44:53.199Z,4.70
2023-12-31T01:47:20.783Z,4.70
2023-12-31T01:49:47.654Z,4.60
2023-12-31T01:52:15.060Z,4.60
2023-12-31T01:54:42.546Z,4.60
2023-12-31T01:57:11.327Z,4.60
2023-12-31T01:59:38.942Z,4.50
2023-12-31T02:02:05.917Z,4.50
2023-12-31T02:04:36.979Z,4.50
2023-12-31T02:07:04.196Z,4.40
2023-12-31T02:09:31.031Z,4.40
2023-12-31T02:11:58.962Z,4.30
2023-12-31T02:14:26.109Z,4.30
2023-12-31T02:16:53.155Z,4.30
2023-12-31T02:19:20.913Z,4.30
2023-12-31T02:21:47.880Z,4.20
2023-12-31T02:24:16.302Z,4.20
2023-12-31T02:26:46.313Z,4.20
2023-12-31T02:29:13.191Z,4.10
2023-12-31T02:31:40.443Z,4.10
2023-12-31T02:34:09.962Z,4.10
2023-12-31T02:36:36.721Z,4.10
2023-12-31T02:39:03.538Z,4.00
2023-12-31T02:41:33.156Z,4.10
2023-12-31T02:43:59.967Z,4.00
2023-12-31T02:46:26.781Z,4.00
2023-12-31T02:48:53.751Z,4.00
2023-12-31T02:51:20.512Z,3.90
2023-12-31T02:53:47.331Z,3.90
2023-12-31T02:56:14.073Z,3.90
2023-12-31T02:58:41.208Z,3.90
2023-12-31T03:01:08.202Z,3.90
2023-12-31T03:03:35.055Z,3.90
2023-12-31T03:06:02.301Z,3.90
2023-12-31T03:08:29.083Z,3.90
2023-12-31T03:10:55.877Z,3.90
2023-12-31T03:13:22.681Z,3.90
2023-12-31T03:15:49.593Z,3.90
2023-12-31T03:18:16.507Z,3.90
2023-12-31T03:20:43.397Z,3.90
2023-12-31T03:23:10.411Z,3.90
2023-12-31T03:25:37.386Z,4.00
2023-12-31T03:28:04.451Z,3.90
2023-12-31T03:30:31.275Z,3.90
2023-12-31T03:32:58.126Z,4.00
2023-12-31T03:35:25.160Z,4.00
2023-12-31T03:37:51.969Z,4.00
2023-12-31T03:40:19.153Z,4.20
2023-12-31T03:42:45.898Z,4.00
2023-12-31T03:45:12.760Z,4.00
2023-12-31T03:47:39.692Z,4.00
2023-12-31T03:50:07.266Z,4.00
2023-12-31T03:52:34.335Z,4.00
2023-12-31T03:55:01.369Z,3.90
2023-12-31T03:57:28.160Z,3.90
2023-12-31T03:59:54.914Z,3.90
2023-12-31T04:02:21.992Z,3.50
2023-12-31T04:04:49.126Z,3.80
2023-12-31T04:07:15.961Z,3.80
2023-12-31T04:09:42.722Z,3.80
2023-12-31T04:12:10.049Z,3.80
2023-12-31T04:14:37.197Z,3.70
2023-12-31T04:17:04.391Z,3.70
2023-12-31T04:19:31.336Z,3.70
2023-12-31T04:21:58.122Z,3.60
2023-12-31T04:24:25.006Z,3.60
2023-12-31T04:26:51.934Z,3.60
2023-12-31T04:29:18.780Z,3.50
2023-12-31T04:31:52.441Z,3.50
2023-12-31T04:34:21.710Z,3.50
2023-12-31T04:36:48.538Z,3.40
2023-12-31T04:39:15.408Z,3.30
2023-12-31T04:41:42.248Z,3.30
2023-12-31T04:44:09.150Z,3.20
2023-12-31T04:46:36.436Z,3.20
2023-12-31T04:49:03.317Z,3.10
2023-12-31T04:51:31.557Z,3.10
2023-12-31T04:53:59.270Z,3.10
2023-12-31T04:56:27.111Z,3.00
2023-12-31T04:58:55.830Z,2.90
2023-12-31T05:01:23.946Z,2.90
2023-12-31T05:03:51.275Z,2.90
2023-12-31T05:06:18.703Z,2.80
2023-12-31T05:08:46.588Z,2.80
2023-12-31T05:11:15.204Z,2.80
2023-12-31T05:13:43.632Z,2.80
2023-12-31T05:16:14.908Z,2.70
2023-12-31T05:18:47.532Z,2.70
2023-12-31T05:21:14.587Z,2.70
2023-12-31T05:23:41.626Z,2.70
2023-12-31T05:26:08.523Z,2.70
2023-12-31T05:28:35.551Z,2.60
2023-12-31T05:31:02.562Z,2.70
2023-12-31T05:33:29.497Z,2.60
2023-12-31T05:35:56.704Z,2.60
2023-12-31T05:38:23.898Z,2.60
2023-12-31T05:40:51.190Z,2.60
2023-12-31T05:43:18.033Z,2.50
2023-12-31T05:45:44.801Z,2.50
2023-12-31T05:48:12.942Z,2.50
2023-12-31T05:50:40.134Z,2.50
2023-12-31T05:53:07.111Z,2.40
2023-12-31T05:55:34.270Z,2.40
2023-12-31T05:58:01.066Z,2.40
2023-12-31T06:00:28.282Z,2.40
2023-12-31T06:02:56.763Z,2.30
2023-12-31T06:05:23.817Z,2.30
2023-12-31T06:07:51.025Z,2.20
2023-12-31T06:10:18.081Z,2.20
2023-12-31T06:12:44.921Z,2.20
2023-12-31T06:15:12.439Z,2.10
2023-12-31T06:17:41.107Z,2.10
2023-12-31T06:20:08.559Z,2.00
2023-12-31T06:22:36.348Z,2.00
2023-12-31T06:25:04.146Z,2.00
2023-12-31T06:27:31.008Z,2.00
2023-12-31T06:29:59.070Z,2.00
2023-12-31T06:32:26.299Z,2.00
2023-12-31T06:34:53.323Z,1.90
2023-12-31T06:37:20.241Z,1.90
2023-12-31T06:39:47.916Z,1.90
2023-12-31T06:42:14.952Z,1.90
2023-12-31T06:44:42.766Z,1.80
2023-12-31T06:47:09.926Z,1.80
2023-12-31T06:49:36.981Z,1.80
2023-12-31T06:52:05.176Z,1.80
2023-12-31T06:54:32.170Z,1.80
2023-12-31T06:56:58.969Z,1.80
2023-12-31T06:59:26.796Z,1.80
2023-12-31T07:01:53.657Z,1.80
2023-12-31T07:04:20.527Z,1.80
2023-12-31T07:06:47.627Z,1.80
2023-12-31T07:09:14.361Z,1.80
2023-12-31T07:11:41.256Z,1.90
2023-12-31T07:14:08.131Z,1.90
2023-12-31T07:16:35.086Z,1.90
2023-12-31T07:19:02.157Z,2.00
2023-12-31T07:21:29.657Z,1.90
2023-12-31T07:23:57.190Z,1.90
2023-12-31T07:26:26.215Z,2.50
2023-12-31T07:28:53.925Z,2.00
2023-12-31T07:31:37.243Z,2.00
2023-12-31T07:34:05.293Z,2.00
2023-12-31T07:36:32.651Z,2.10
2023-12-31T07:39:00.558Z,2.10
2023-12-31T07:41:27.565Z,2.10
2023-12-31T07:43:54.401Z,2.20
2023-12-31T07:46:21.565Z,2.20
2023-12-31T07:48:48.744Z,2.30
2023-12-31T07:51:15.942Z,2.40
2023-12-31T07:53:42.727Z,2.40
2023-12-31T07:56:09.642Z,2.50
2023-12-31T07:58:36.954Z,2.50
2023-12-31T08:01:04.395Z,2.60
2023-12-31T08:03:32.593Z,2.70
2023-12-31T08:05:59.477Z,2.70
2023-12-31T08:08:26.826Z,2.70
2023-12-31T08:10:53.732Z,2.80
2023-12-31T08:13:20.828Z,2.80
2023-12-31T08:15:47.962Z,2.80
2023-12-31T08:18:15.444Z,2.80
2023-12-31T08:20:43.830Z,2.90
2023-12-31T08:23:11.116Z,2.90
2023-12-31T08:25:38.283Z,2.90
2023-12-31T08:28:05.384Z,2.90
2023-12-31T08:30:34.573Z,2.90
2023-12-31T08:33:01.931Z,2.90
2023-12-31T08:35:29.151Z,3.00
2023-12-31T08:37:56.474Z,3.10
2023-12-31T08:40:23.337Z,3.10
2023-12-31T08:42:50.197Z,3.10
2023-12-31T08:45:17.109Z,3.20
2023-12-31T08:47:44.763Z,3.30
2023-12-31T08:50:13.628Z,3.40
2023-12-31T08:52:45.733Z,3.50
2023-12-31T08:55:13.379Z,3.50
2023-12-31T08:57:49.599Z,3.60
2023-12-31T09:00:20.264Z,3.60
2023-12-31T09:02:48.458Z,3.70
2023-12-31T09:05:15.674Z,3.70
2023-12-31T09:07:43.198Z,3.70
2023-12-31T09:10:10.862Z,3.80
2023-12-31T09:12:37.955Z,3.80
2023-12-31T09:15:06.511Z,3.80
2023-12-31T09:17:36.740Z,3.80
2023-12-31T09:20:06.955Z,3.90
2023-12-31T09:22:34.635Z,3.90
2023-12-31T09:25:01.939Z,3.90
2023-12-31T09:27:28.767Z,3.90
2023-12-31T09:29:55.540Z,4.00
2023-12-31T09:32:22.434Z,4.00
2023-12-31T09:34:49.910Z,4.00
2023-12-31T09:37:20.720Z,4.00
2023-12-31T09:39:48.535Z,4.10
2023-12-31T09:42:20.519Z,4.20
2023-12-31T09:44:50.076Z,4.20
2023-12-31T09:47:16.970Z,4.30
2023-12-31T09:49:45.569Z,4.30
2023-12-31T09:52:14.211Z,4.30
2023-12-31T09:54:42.330Z,4.40
2023-12-31T09:57:13.147Z,4.50
2023-12-31T09:59:43.458Z,4.50
2023-12-31T10:02:17.138Z,4.60
2023-12-31T10:04:45.485Z,4.60
2023-12-31T10:07:13.796Z,4.70
2023-12-31T10:09:43.692Z,4.80
2023-12-31T10:12:11.145Z,5.20
2023-12-31T10:14:38.095Z,4.90
2023-12-31T10:17:08.990Z,4.90
2023-12-31T10:19:36.143Z,4.90
2023-12-31T10:22:06.860Z,4.90
2023-12-31T10:24:33.930Z,4.90
2023-12-31T10:27:06.297Z,5.00
2023-12-31T10:29:39.624Z,5.00
2023-12-31T10:32:07.478Z,5.00
2023-12-31T10:34:35.358Z,5.00
2023-12-31T10:37:06.303Z,5.10
2023-12-31T10:39:35.180Z,5.10
2023-12-31T10:42:06.966Z,5.10
2023-12-31T10:44:36.121Z,5.10
2023-12-31T10:47:16.581Z,5.20
2023-12-31T10:49:49.567Z,5.20
2023-12-31T10:52:17.364Z,5.20
2023-12-31T10:54:47.848Z,5.20
2023-12-31T10:57:17.874Z,5.20
2023-12-31T10:59:44.723Z,5.30
2023-12-31T11:02:17.485Z,5.30
2023-12-31T11:04:48.951Z,5.40
2023-12-31T11:07:20.585Z,5.40
2023-12-31T11:09:48.765Z,5.40
2023-12-31T11:12:17.119Z,5.40
2023-12-31T11:14:49.660Z,5.50
2023-12-31T11:17:36.741Z,5.50
2023-12-31T11:20:26.911Z,5.50
2023-12-31T11:23:09.949Z,5.60
2023-12-31T11:25:39.649Z,5.60
2023-12-31T11:28:10.641Z,5.60
2023-12-31T11:31:00.298Z,5.60
2023-12-31T11:33:36.743Z,5.70
2023-12-31T11:36:07.001Z,5.70
2023-12-31T11:38:58.313Z,5.70
2023-12-31T11:41:33.043Z,5.80
2023-12-31T11:44:00.603Z,5.80
2023-12-31T11:46:35.164Z,5.80
2023-12-31T11:49:02.195Z,5.90
2023-12-31T11:51:30.901Z,5.90
2023-12-31T11:54:03.532Z,5.90
2023-12-31T11:56:31.749Z,5.90
2023-12-31T11:58:58.981Z,6.00
2023-12-31T12:01:27.140Z,6.00
2023-12-31T12:03:58.797Z,6.00
2023-12-31T12:06:25.690Z,6.10
2023-12-31T12:08:52.758Z,6.10
2023-12-31T12:11:19.526Z,6.10
2023-12-31T12:13:47.326Z,6.20
2023-12-31T12:16:14.925Z,6.20
2023-12-31T12:18:42.144Z,6.20
2023-12-31T12:21:09.880Z,6.30
2023-12-31T12:23:36.903Z,6.40
2023-12-31T12:26:04.356Z,6.50
2023-12-31T12:28:32.553Z,6.50
2023-12-31T12:30:59.644Z,6.60
2023-12-31T12:33:27.969Z,6.70
2023-12-31T12:35:54.988Z,6.70
2023-12-31T12:38:22.282Z,6.70
2023-12-31T12:40:52.749Z,6.80
2023-12-31T12:43:19.569Z,6.80
2023-12-31T12:46:02.909Z,6.90
2023-12-31T12:48:29.900Z,6.90
2023-12-31T12:50:57.109Z,6.90
2023-12-31T12:53:24.528Z,6.90
2023-12-31T12:55:51.607Z,6.60
2023-12-31T12:58:18.601Z,6.80
2023-12-31T13:00:45.423Z,6.80
2023-12-31T13:03:12.517Z,6.80
2023-12-31T13:05:40.525Z,7.20
2023-12-31T13:08:07.863Z,6.70
2023-12-31T13:10:34.860Z,6.60
2023-12-31T13:13:01.870Z,6.60
2023-12-31T13:15:29.168Z,6.60
2023-12-31T13:17:57.386Z,6.50
2023-12-31T13:20:25.715Z,6.50
2023-12-31T13:22:52.682Z,6.40
2023-12-31T13:25:19.555Z,6.40
2023-12-31T13:27:46.348Z,6.40
2023-12-31T13:30:13.840Z,6.30
2023-12-31T13:32:40.726Z,6.20
2023-12-31T13:35:08.001Z,6.20
2023-12-31T13:37:35.116Z,6.10
2023-12-31T13:40:02.008Z,6.10
2023-12-31T13:42:31.659Z,6.00
2023-12-31T13:44:59.300Z,5.90
2023-12-31T13:47:26.105Z,5.90
2023-12-31T13:49:53.553Z,5.80
2023-12-31T13:52:22.818Z,5.70
2023-12-31T13:54:50.198Z,5.70
2023-12-31T13:57:17.283Z,5.60
2023-12-31T13:59:44.289Z,5.60
2023-12-31T14:02:12.080Z,5.50
2023-12-31T14:04:38.901Z,5.50
2023-12-31T14:07:05.677Z,5.10
2023-12-31T14:09:33.038Z,5.40
2023-12-31T14:12:00.170Z,5.30
2023-12-31T14:14:26.917Z,5.30
2023-12-31T14:16:53.676Z,5.20
2023-12-31T14:19:26.940Z,5.20
2023-12-31T14:21:59.067Z,5.10
2023-12-31T14:24:25.861Z,5.00
2023-12-31T14:26:52.599Z,5.00
2023-12-31T14:29:19.349Z,4.90
2023-12-31T14:31:46.162Z,4.80
2023-12-31T14:34:14.652Z,4.80
2023-12-31T14:36:42.607Z,4.70
2023-12-31T14:39:09.427Z,4.60
2023-12-31T14:41:36.486Z,4.60
2023-12-31T14:44:04.790Z,4.50
2023-12-31T14:46:31.949Z,4.50
2023-12-31T14:48:58.891Z,4.90
2023-12-31T14:51:25.753Z,4.30
2023-12-31T14:53:52.759Z,4.30
2023-12-31T14:56:19.519Z,4.30
2023-12-31T14:58:46.295Z,4.20
2023-12-31T15:01:13.165Z,4.10
2023-12-31T15:03:40.310Z,4.10
2023-12-31T15:06:08.147Z,4.00
2023-12-31T15:08:35.224Z,4.00
2023-12-31T15:11:03.731Z,4.00
2023-12-31T15:13:30.698Z,3.90
2023-12-31T15:15:57.489Z,3.90
2023-12-31T15:18:24.926Z,3.80
2023-12-31T15:20:52.033Z,3.80
2023-12-31T15:23:20.584Z,3.70
2023-12-31T15:25:47.554Z,3.80
2023-12-31T15:28:14.336Z,3.70
2023-12-31T15:30:41.173Z,3.70
2023-12-31T15:33:09.346Z,3.70
2023-12-31T15:35:36.160Z,3.70
2023-12-31T15:38:03.528Z,3.60
2023-12-31T15:40:30.555Z,3.70
2023-12-31T15:42:57.330Z,3.60
2023-12-31T15:45:24.114Z,3.60
2023-12-31T15:47:51.055Z,3.50
2023-12-31T15:50:17.842Z,3.50
2023-12-31T15:52:44.696Z,3.50
2023-12-31T15:55:13.902Z,3.50
2023-12-31T15:57:40.694Z,3.40
2023-12-31T16:00:08.068Z,3.40
2023-12-31T16:02:34.922Z,3.40
2023-12-31T16:05:01.772Z,3.30
2023-12-31T16:07:28.579Z,3.30
2023-12-31T16:09:55.376Z,3.30
2023-12-31T16:12:22.980Z,3.40
2023-12-31T16:14:49.782Z,3.30
2023-12-31T16:17:16.683Z,3.30
2023-12-31T16:19:43.614Z,3.50
2023-12-31T16:22:10.831Z,3.30
2023-12-31T16:24:37.593Z,3.30
2023-12-31T16:27:04.643Z,3.20
2023-12-31T16:29:31.389Z,3.30
2023-12-31T16:31:58.264Z,3.20
2023-12-31T16:34:25.804Z,3.20
2023-12-31T16:36:52.625Z,3.20
2023-12-31T16:39:19.393Z,3.20
2023-12-31T16:41:46.159Z,4.10
2023-12-31T16:44:13.873Z,3.30
2023-12-31T16:46:40.721Z,3.30
2023-12-31T16:49:07.683Z,3.30
2023-12-31T16:51:34.616Z,3.30
2023-12-31T16:54:01.965Z,3.30
2023-12-31T16:56:29.142Z,3.40
2023-12-31T16:58:56.885Z,3.30
2023-12-31T17:01:24.871Z,3.40
2023-12-31T17:03:51.778Z,3.40
2023-12-31T17:06:18.701Z,3.30
2023-12-31T17:08:46.723Z,3.40
2023-12-31T17:11:13.919Z,3.40
2023-12-31T17:13:41.413Z,3.40
2023-12-31T17:16:10.109Z,3.50
2023-12-31T17:18:36.981Z,3.50
2023-12-31T17:21:04.002Z,3.50
2023-12-31T17:23:30.804Z,3.60
2023-12-31T17:25:57.678Z,3.60
2023-12-31T17:28:27.603Z,3.60
2023-12-31T17:30:54.705Z,3.70
2023-12-31T17:33:21.694Z,3.70
2023-12-31T17:35:49.013Z,3.70
2023-12-31T17:38:16.962Z,3.70
2023-12-31T17:40:43.781Z,3.80
2023-12-31T17:43:10.566Z,3.80
2023-12-31T17:45:37.656Z,3.80
2023-12-31T17:48:05.054Z,3.80
2023-12-31T17:50:32.122Z,3.80
2023-12-31T17:52:59.722Z,3.90
2023-12-31T17:55:26.841Z,3.90
2023-12-31T17:57:53.894Z,4.30
2023-12-31T18:00:20.838Z,4.00
2023-12-31T18:02:47.674Z,4.00
2023-12-31T18:05:15.059Z,4.00
2023-12-31T18:07:42.073Z,4.00
2023-12-31T18:10:11.021Z,4.10
2023-12-31T18:12:38.448Z,4.10
2023-12-31T18:15:06.097Z,4.10
2023-12-31T18:17:32.980Z,4.10
2023-12-31T18:20:00.111Z,4.20
2023-12-31T18:22:27.935Z,4.20
2023-12-31T18:24:54.946Z,4.20
2023-12-31T18:27:21.710Z,4.20
2023-12-31T18:29:49.915Z,4.30
2023-12-31T18:32:20.135Z,4.30
2023-12-31T18:34:46.944Z,4.30
2023-12-31T18:37:14.187Z,4.30
2023-12-31T18:39:41.383Z,4.30
2023-12-31T18:42:09.445Z,4.30
2023-12-31T18:44:36.477Z,5.40
2023-12-31T18:47:03.576Z,5.70
2023-12-31T18:49:30.499Z,4.40
2023-12-31T18:51:57.361Z,4.40
2023-12-31T18:54:24.227Z,4.40
2023-12-31T18:56:51.041Z,4.40
2023-12-31T18:59:17.941Z,4.40
2023-12-31T19:01:45.090Z,4.50
2023-12-31T19:04:15.144Z,4.50
2023-12-31T19:06:42.246Z,4.50
2023-12-31T19:09:09.665Z,4.50
2023-12-31T19:11:36.958Z,4.50
2023-12-31T19:14:04.034Z,4.50
2023-12-31T19:16:31.034Z,4.50
2023-12-31T19:18:58.235Z,4.50
2023-12-31T19:21:25.894Z,4.50
2023-12-31T19:23:53.574Z,4.60
2023-12-31T19:26:20.817Z,4.50
2023-12-31T19:28:47.794Z,4.60
2023-12-31T19:31:14.557Z,4.60
2023-12-31T19:33:41.517Z,4.60
2023-12-31T19:36:08.640Z,4.60
2023-12-31T19:38:35.456Z,4.60
2023-12-31T19:41:02.289Z,4.60
2023-12-31T19:46:09.707Z,5.10
2023-12-31T19:48:37.285Z,4.60
2023-12-31T19:51:05.552Z,4.60
2023-12-31T19:53:35.302Z,4.60
2023-12-31T19:56:04.372Z,4.60
2023-12-31T19:58:32.772Z,4.60
2023-12-31T20:01:00.285Z,4.80
2023-12-31T20:03:27.288Z,4.70
2023-12-31T20:05:54.589Z,4.60
2023-12-31T20:08:25.653Z,4.60
2023-12-31T20:10:53.025Z,4.70
2023-12-31T20:13:19.840Z,4.70
2023-12-31T20:15:48.926Z,4.70
2023-12-31T20:18:19.717Z,4.70
2023-12-31T20:20:46.974Z,4.70
2023-12-31T20:23:13.877Z,4.70
2023-12-31T20:25:41.768Z,4.70
2023-12-31T20:28:09.133Z,4.70
2023-12-31T20:30:36.273Z,4.70
2023-12-31T20:33:03.934Z,4.70
2023-12-31T20:35:31.167Z,4.70
2023-12-31T20:37:58.245Z,4.70
2023-12-31T20:40:25.153Z,4.60
2023-12-31T20:42:52.901Z,4.70
2023-12-31T20:45:20.137Z,4.60
2023-12-31T20:47:48.449Z,4.70
2023-12-31T20:50:16.399Z,4.60
2023-12-31T20:52:43.894Z,4.60
2023-12-31T20:55:11.538Z,4.60
2023-12-31T20:57:38.364Z,4.60
2023-12-31T21:00:07.286Z,4.60
2023-12-31T21:02:34.491Z,4.60
2023-12-31T21:05:01.750Z,4.60
2023-12-31T21:07:31.873Z,4.60
2023-12-31T21:09:59.514Z,4.60
2023-12-31T21:12:28.206Z,4.60
2023-12-31T21:14:55.032Z,4.60
2023-12-31T21:17:21.961Z,4.60
2023-12-31T21:19:49.050Z,4.60
2023-12-31T21:22:15.861Z,4.60
2023-12-31T21:24:43.314Z,4.50
2023-12-31T21:27:10.482Z,4.60
2023-12-31T21:29:38.328Z,4.50
2023-12-31T21:32:05.975Z,4.70
2023-12-31T21:34:33.624Z,4.50
2023-12-31T21:37:01.616Z,4.50
2023-12-31T21:39:28.494Z,4.50
2023-12-31T21:41:55.373Z,4.60
2023-12-31T21:44:22.206Z,4.50
2023-12-31T21:46:49.137Z,4.60
2023-12-31T21:49:16.195Z,4.50
2023-12-31T21:51:43.071Z,4.50
2023-12-31T21:54:09.891Z,4.50
2023-12-31T21:59:06.551Z,4.60
2023-12-31T22:01:33.664Z,4.50
2023-12-31T22:04:01.556Z,4.50
2023-12-31T22:06:29.306Z,4.60
2023-12-31T22:08:57.525Z,4.60
2023-12-31T22:11:24.472Z,4.50
2023-12-31T22:13:51.392Z,4.40
2023-12-31T22:16:19.077Z,4.40
2023-12-31T22:18:45.970Z,4.40
2023-12-31T22:21:13.226Z,4.30
2023-12-31T22:23:40.268Z,4.30
2023-12-31T22:26:07.041Z,4.30
2023-12-31T22:28:33.851Z,4.20
2023-12-31T22:31:00.964Z,4.20
2023-12-31T22:33:27.848Z,4.20
2023-12-31T22:35:55.036Z,4.20
2023-12-31T22:38:22.048Z,4.10
2023-12-31T22:40:49.137Z,4.10
2023-12-31T22:43:16.128Z,4.10
2023-12-31T22:45:43.292Z,4.10
2023-12-31T22:48:11.791Z,4.10
2023-12-31T22:50:38.940Z,4.10
2023-12-31T22:53:05.901Z,4.10
2023-12-31T22:55:32.780Z,4.10
2023-12-31T22:57:59.679Z,4.10
2023-12-31T23:00:27.227Z,4.10
2023-12-31T23:02:55.480Z,4.10
2023-12-31T23:05:22.708Z,4.20
2023-12-31T23:07:49.575Z,4.10
2023-12-31T23:10:16.803Z,4.20
2023-12-31T23:12:43.766Z,4.20
2023-12-31T23:15:10.999Z,4.20
2023-12-31T23:17:38.469Z,4.20
2023-12-31T23:20:07.266Z,4.20
2023-12-31T23:22:35.058Z,4.30
2023-12-31T23:25:02.578Z,4.30
2023-12-31T23:27:29.779Z,4.30
2023-12-31T23:29:57.048Z,4.30
2023-12-31T23:32:24.575Z,4.30
2023-12-31T23:34:51.455Z,4.30
2023-12-31T23:37:18.760Z,4.30
2023-12-31T23:39:45.535Z,4.30
2023-12-31T23:42:12.449Z,4.30
2023-12-31T23:44:39.569Z,4.30
2023-12-31T23:47:06.492Z,4.30
2023-12-31T23:49:33.636Z,4.40
2023-12-31T23:52:00.686Z,4.40
2023-12-31T23:54:27.651Z,4.30
2023-12-31T23:56:54.690Z,4.40
2023-12-31T23:59:21.666Z,4.40
